KNGP

Airport

Corpus Christi, Texas, USA
METAR KNGP 220656Z 17011KT 10SM FEW019 29/27 A2991 RMK AO2 SLP128 T02940272
Observed Flight Rules
Sep-22 @ 06:56 UTC (34 minutes ago) Visual Flight Rules
Wind Visibility Clouds
170° at 11 knots 10 miles
Temperatures Readings
Current 29°C / 84°F
Dewpoint 27°C / 81°F
Humidity 89%
Altimeter 29.91" Hg
Pressure 1012.8 hPa
Elevation 6
METAR KNGP 220656Z 17011KT 10SM FEW019 29/27 A2991 RMK AO2 SLP128 T02940272
Observed Flight Rules
Sep-22 @ 06:56 UTC
(34 minutes ago)
VFR
Wind Visibility
170° at 11 knots 10 miles
Clouds
Temperature Dewpoint
29°C / 84°F 27°C / 81°F
Humidity Altimeter Pressure
89% 29.91" Hg 1012.8 hPa